Franklin, Wisconsin
Current Conditions -  °F | °C
As of 5:52 AM on Monday 20 Oct 2014 (Local Time) from KMKE Reporting Station
Clear Clear  
Wind Chill: 46°   Ceiling: Unl
Heat Index: 49°   Visibility: 10mi
Dew Point: 42°   Wind: 7mph
Humidity: 77%   Direction: 280°W
Pressure: 29.77"   Gusts: NA
Location:  42.9°N, 88.03°W
Report Text: KMKE 201052Z 28006KT 10SM CLR 09/06 A2977 RMK AO2 SLP084 T00940056
Loading
Personal Weather Stations






























Interactive Weather Map
Tropical Storm Tracking
New forecast layout! Learn more

10-Day Weather Forecast

Advertisements
Track Severe Weather on mobile